sensor_id;sensor_type;location;lat;lon;timestamp;pressure;altitude;pressure_sealevel;temperature;humidity
51083;BME280;37131;42.694;23.350;2024-03-17T00:00:20;95734.31;;;6.74;70.11
51083;BME280;37131;42.694;23.350;2024-03-17T00:02:46;95735.38;;;6.72;70.04
51083;BME280;37131;42.694;23.350;2024-03-17T00:05:12;95738.88;;;6.71;70.17
51083;BME280;37131;42.694;23.350;2024-03-17T00:07:38;95735.44;;;6.60;70.37
51083;BME280;37131;42.694;23.350;2024-03-17T00:10:04;95738.25;;;6.57;71.59
51083;BME280;37131;42.694;23.350;2024-03-17T00:12:29;95735.00;;;6.55;71.37
51083;BME280;37131;42.694;23.350;2024-03-17T00:14:55;95736.75;;;6.55;71.88
51083;BME280;37131;42.694;23.350;2024-03-17T00:17:20;95734.00;;;6.47;72.34
51083;BME280;37131;42.694;23.350;2024-03-17T00:19:46;95732.41;;;6.35;71.46
51083;BME280;37131;42.694;23.350;2024-03-17T00:22:12;95736.81;;;6.44;71.64
51083;BME280;37131;42.694;23.350;2024-03-17T00:24:40;95730.28;;;6.40;72.38
51083;BME280;37131;42.694;23.350;2024-03-17T00:27:05;95735.22;;;6.31;72.68
51083;BME280;37131;42.694;23.350;2024-03-17T00:29:31;95723.91;;;6.34;72.25
51083;BME280;37131;42.694;23.350;2024-03-17T00:31:58;95725.28;;;6.38;72.05
51083;BME280;37131;42.694;23.350;2024-03-17T00:34:24;95728.78;;;6.37;71.89
51083;BME280;37131;42.694;23.350;2024-03-17T00:36:49;95725.56;;;6.24;72.64
51083;BME280;37131;42.694;23.350;2024-03-17T00:39:14;95725.84;;;6.21;73.06
51083;BME280;37131;42.694;23.350;2024-03-17T00:41:40;95722.16;;;6.14;74.70
51083;BME280;37131;42.694;23.350;2024-03-17T00:44:06;95727.84;;;6.17;73.62
51083;BME280;37131;42.694;23.350;2024-03-17T00:46:31;95726.28;;;5.94;74.44
51083;BME280;37131;42.694;23.350;2024-03-17T00:48:58;95726.63;;;6.01;74.39
51083;BME280;37131;42.694;23.350;2024-03-17T00:51:24;95728.50;;;5.98;74.37
51083;BME280;37131;42.694;23.350;2024-03-17T00:53:49;95736.06;;;6.00;74.68
51083;BME280;37131;42.694;23.350;2024-03-17T00:56:14;95732.31;;;6.04;74.71
51083;BME280;37131;42.694;23.350;2024-03-17T00:58:40;95729.44;;;5.97;74.43
51083;BME280;37131;42.694;23.350;2024-03-17T01:01:06;95731.66;;;5.91;74.47
51083;BME280;37131;42.694;23.350;2024-03-17T01:03:31;95733.63;;;5.87;74.73
51083;BME280;37131;42.694;23.350;2024-03-17T01:05:57;95730.25;;;5.87;76.00
51083;BME280;37131;42.694;23.350;2024-03-17T01:08:22;95728.50;;;5.87;74.50
51083;BME280;37131;42.694;23.350;2024-03-17T01:10:48;95727.34;;;5.80;74.90
51083;BME280;37131;42.694;23.350;2024-03-17T01:13:17;95736.91;;;5.78;74.49
51083;BME280;37131;42.694;23.350;2024-03-17T01:15:43;95736.31;;;5.75;75.36
51083;BME280;37131;42.694;23.350;2024-03-17T01:18:08;95737.75;;;5.68;76.04
51083;BME280;37131;42.694;23.350;2024-03-17T01:20:35;95742.31;;;5.64;75.95
51083;BME280;37131;42.694;23.350;2024-03-17T01:23:01;95741.38;;;5.54;75.48
51083;BME280;37131;42.694;23.350;2024-03-17T01:25:27;95746.50;;;5.54;76.13
51083;BME280;37131;42.694;23.350;2024-03-17T01:27:53;95740.22;;;5.58;76.62
51083;BME280;37131;42.694;23.350;2024-03-17T01:30:18;95740.91;;;5.60;76.74
51083;BME280;37131;42.694;23.350;2024-03-17T01:32:47;95736.25;;;5.54;76.64
51083;BME280;37131;42.694;23.350;2024-03-17T01:35:14;95739.19;;;5.49;77.35
51083;BME280;37131;42.694;23.350;2024-03-17T01:37:40;95741.50;;;5.41;77.46
51083;BME280;37131;42.694;23.350;2024-03-17T01:40:06;95741.75;;;5.27;77.56
51083;BME280;37131;42.694;23.350;2024-03-17T01:42:38;95734.75;;;5.29;77.33
51083;BME280;37131;42.694;23.350;2024-03-17T01:45:28;95736.75;;;5.25;79.13
51083;BME280;37131;42.694;23.350;2024-03-17T01:47:54;95734.53;;;5.21;78.59
51083;BME280;37131;42.694;23.350;2024-03-17T01:50:23;95737.78;;;5.23;78.81
51083;BME280;37131;42.694;23.350;2024-03-17T01:53:01;95740.25;;;5.24;79.15
51083;BME280;37131;42.694;23.350;2024-03-17T01:55:29;95740.38;;;5.12;80.21
51083;BME280;37131;42.694;23.350;2024-03-17T01:57:55;95738.88;;;5.09;78.82
51083;BME280;37131;42.694;23.350;2024-03-17T02:00:20;95733.03;;;5.07;79.81
51083;BME280;37131;42.694;23.350;2024-03-17T02:02:46;95736.53;;;4.95;79.21
51083;BME280;37131;42.694;23.350;2024-03-17T02:05:12;95734.66;;;4.97;80.08
51083;BME280;37131;42.694;23.350;2024-03-17T02:07:37;95737.22;;;4.97;79.97
51083;BME280;37131;42.694;23.350;2024-03-17T02:10:03;95729.53;;;4.86;79.52
51083;BME280;37131;42.694;23.350;2024-03-17T02:12:29;95735.47;;;4.86;80.16
51083;BME280;37131;42.694;23.350;2024-03-17T02:14:59;95735.69;;;4.83;80.15
51083;BME280;37131;42.694;23.350;2024-03-17T02:17:25;95734.31;;;4.90;81.02
51083;BME280;37131;42.694;23.350;2024-03-17T02:19:51;95737.91;;;4.88;79.86
51083;BME280;37131;42.694;23.350;2024-03-17T02:22:17;95735.22;;;4.78;80.87
51083;BME280;37131;42.694;23.350;2024-03-17T02:24:43;95732.88;;;4.75;80.58
51083;BME280;37131;42.694;23.350;2024-03-17T02:27:09;95739.41;;;4.79;80.59
51083;BME280;37131;42.694;23.350;2024-03-17T02:29:35;95738.69;;;4.77;80.41
51083;BME280;37131;42.694;23.350;2024-03-17T02:32:05;95726.28;;;4.84;81.58
51083;BME280;37131;42.694;23.350;2024-03-17T02:34:36;95732.22;;;4.84;80.97
51083;BME280;37131;42.694;23.350;2024-03-17T02:37:03;95730.34;;;4.86;81.02
51083;BME280;37131;42.694;23.350;2024-03-17T02:39:30;95732.66;;;4.78;80.62
51083;BME280;37131;42.694;23.350;2024-03-17T02:42:00;95725.22;;;4.75;81.62
51083;BME280;37131;42.694;23.350;2024-03-17T02:44:26;95725.56;;;4.82;79.66
51083;BME280;37131;42.694;23.350;2024-03-17T02:46:52;95725.47;;;4.83;79.25
51083;BME280;37131;42.694;23.350;2024-03-17T02:49:17;95728.25;;;4.80;80.75
51083;BME280;37131;42.694;23.350;2024-03-17T02:51:43;95726.16;;;4.85;79.56
51083;BME280;37131;42.694;23.350;2024-03-17T02:54:09;95722.31;;;4.80;80.49
51083;BME280;37131;42.694;23.350;2024-03-17T02:56:34;95725.34;;;4.85;79.39
51083;BME280;37131;42.694;23.350;2024-03-17T02:59:00;95724.16;;;4.78;80.74
51083;BME280;37131;42.694;23.350;2024-03-17T03:01:25;95728.00;;;4.72;81.75
51083;BME280;37131;42.694;23.350;2024-03-17T03:03:50;95728.09;;;4.71;81.39
51083;BME280;37131;42.694;23.350;2024-03-17T03:06:16;95720.56;;;4.69;80.34
51083;BME280;37131;42.694;23.350;2024-03-17T03:08:45;95717.19;;;4.69;79.82
51083;BME280;37131;42.694;23.350;2024-03-17T03:11:14;95724.28;;;4.65;81.98
51083;BME280;37131;42.694;23.350;2024-03-17T03:13:41;95720.91;;;4.64;80.25
51083;BME280;37131;42.694;23.350;2024-03-17T03:16:07;95726.38;;;4.71;80.48
51083;BME280;37131;42.694;23.350;2024-03-17T03:18:34;95726.03;;;4.64;81.76
51083;BME280;37131;42.694;23.350;2024-03-17T03:20:59;95728.00;;;4.61;82.04
51083;BME280;37131;42.694;23.350;2024-03-17T03:23:25;95722.19;;;4.59;81.72
51083;BME280;37131;42.694;23.350;2024-03-17T03:25:56;95723.22;;;4.56;80.88
51083;BME280;37131;42.694;23.350;2024-03-17T03:28:25;95721.00;;;4.52;82.35
51083;BME280;37131;42.694;23.350;2024-03-17T03:30:50;95722.75;;;4.51;81.48
51083;BME280;37131;42.694;23.350;2024-03-17T03:33:17;95726.69;;;4.44;82.82
51083;BME280;37131;42.694;23.350;2024-03-17T03:35:43;95727.97;;;4.50;82.78
51083;BME280;37131;42.694;23.350;2024-03-17T03:38:08;95726.13;;;4.52;82.80
51083;BME280;37131;42.694;23.350;2024-03-17T03:40:34;95730.75;;;4.47;81.67
51083;BME280;37131;42.694;23.350;2024-03-17T03:42:59;95722.41;;;4.56;82.18
51083;BME280;37131;42.694;23.350;2024-03-17T03:45:25;95729.41;;;4.65;81.50
51083;BME280;37131;42.694;23.350;2024-03-17T03:47:50;95728.47;;;4.66;81.25
51083;BME280;37131;42.694;23.350;2024-03-17T03:50:19;95730.16;;;4.43;82.42
51083;BME280;37131;42.694;23.350;2024-03-17T03:52:44;95737.84;;;4.43;82.00
51083;BME280;37131;42.694;23.350;2024-03-17T03:55:11;95741.22;;;4.44;81.72
51083;BME280;37131;42.694;23.350;2024-03-17T03:57:39;95748.09;;;4.54;81.32
51083;BME280;37131;42.694;23.350;2024-03-17T04:00:05;95749.50;;;4.58;81.14
51083;BME280;37131;42.694;23.350;2024-03-17T04:02:50;95750.44;;;4.57;81.70
51083;BME280;37131;42.694;23.350;2024-03-17T04:05:16;95750.19;;;4.49;82.13
51083;BME280;37131;42.694;23.350;2024-03-17T04:07:43;95747.25;;;4.43;81.94
51083;BME280;37131;42.694;23.350;2024-03-17T04:10:11;95753.84;;;4.34;82.82
51083;BME280;37131;42.694;23.350;2024-03-17T04:12:36;95758.03;;;4.35;82.56
51083;BME280;37131;42.694;23.350;2024-03-17T04:15:03;95764.72;;;4.25;84.06
51083;BME280;37131;42.694;23.350;2024-03-17T04:17:31;95761.94;;;4.28;82.05
51083;BME280;37131;42.694;23.350;2024-03-17T04:19:58;95769.28;;;4.32;81.89
51083;BME280;37131;42.694;23.350;2024-03-17T04:22:23;95761.41;;;4.36;81.37
51083;BME280;37131;42.694;23.350;2024-03-17T04:24:49;95767.56;;;4.33;81.52
51083;BME280;37131;42.694;23.350;2024-03-17T04:27:25;95760.31;;;4.27;81.03
51083;BME280;37131;42.694;23.350;2024-03-17T04:29:54;95770.66;;;4.25;82.94
51083;BME280;37131;42.694;23.350;2024-03-17T04:32:21;95772.63;;;4.22;82.39
51083;BME280;37131;42.694;23.350;2024-03-17T04:34:46;95778.06;;;4.17;82.60
51083;BME280;37131;42.694;23.350;2024-03-17T04:37:15;95776.09;;;4.21;82.99
51083;BME280;37131;42.694;23.350;2024-03-17T04:39:43;95777.63;;;4.23;82.89
51083;BME280;37131;42.694;23.350;2024-03-17T04:42:09;95784.47;;;4.23;82.11
51083;BME280;37131;42.694;23.350;2024-03-17T04:44:35;95794.16;;;4.30;81.45
51083;BME280;37131;42.694;23.350;2024-03-17T04:47:01;95794.47;;;4.26;82.69
51083;BME280;37131;42.694;23.350;2024-03-17T04:49:27;95792.75;;;4.26;81.60
51083;BME280;37131;42.694;23.350;2024-03-17T04:51:52;95792.75;;;4.26;83.36
51083;BME280;37131;42.694;23.350;2024-03-17T04:54:18;95793.28;;;4.19;81.67
51083;BME280;37131;42.694;23.350;2024-03-17T04:56:43;95807.88;;;4.06;82.61
51083;BME280;37131;42.694;23.350;2024-03-17T04:59:09;95803.47;;;4.08;83.76
51083;BME280;37131;42.694;23.350;2024-03-17T05:01:34;95816.38;;;4.06;81.91
51083;BME280;37131;42.694;23.350;2024-03-17T05:04:02;95811.25;;;4.06;83.12
51083;BME280;37131;42.694;23.350;2024-03-17T05:06:31;95821.25;;;4.09;82.58
51083;BME280;37131;42.694;23.350;2024-03-17T05:08:56;95818.38;;;4.14;81.69
51083;BME280;37131;42.694;23.350;2024-03-17T05:11:22;95821.69;;;4.27;83.14
51083;BME280;37131;42.694;23.350;2024-03-17T05:13:49;95817.53;;;4.37;83.01
51083;BME280;37131;42.694;23.350;2024-03-17T05:16:15;95826.34;;;4.33;81.03
51083;BME280;37131;42.694;23.350;2024-03-17T05:18:41;95827.50;;;4.29;81.06
51083;BME280;37131;42.694;23.350;2024-03-17T05:21:07;95825.44;;;4.34;82.59
51083;BME280;37131;42.694;23.350;2024-03-17T05:23:35;95829.75;;;4.10;83.00
51083;BME280;37131;42.694;23.350;2024-03-17T05:26:01;95834.25;;;4.06;82.16
51083;BME280;37131;42.694;23.350;2024-03-17T05:28:28;95834.78;;;4.22;81.52
51083;BME280;37131;42.694;23.350;2024-03-17T05:30:54;95841.91;;;4.30;82.04
51083;BME280;37131;42.694;23.350;2024-03-17T05:33:20;95834.28;;;4.41;81.84
51083;BME280;37131;42.694;23.350;2024-03-17T05:38:21;95839.84;;;4.35;81.15
51083;BME280;37131;42.694;23.350;2024-03-17T05:40:59;95831.69;;;4.54;81.52
51083;BME280;37131;42.694;23.350;2024-03-17T05:43:32;95830.56;;;4.69;80.85
51083;BME280;37131;42.694;23.350;2024-03-17T05:45:59;95831.97;;;4.73;80.44
51083;BME280;37131;42.694;23.350;2024-03-17T05:48:26;95835.94;;;4.77;78.56
51083;BME280;37131;42.694;23.350;2024-03-17T05:50:52;95833.00;;;4.71;80.01
51083;BME280;37131;42.694;23.350;2024-03-17T05:53:18;95831.03;;;4.74;79.63
51083;BME280;37131;42.694;23.350;2024-03-17T05:55:44;95824.69;;;4.91;78.18
51083;BME280;37131;42.694;23.350;2024-03-17T05:58:10;95836.63;;;4.79;79.60
51083;BME280;37131;42.694;23.350;2024-03-17T06:00:36;95836.63;;;4.79;79.80
51083;BME280;37131;42.694;23.350;2024-03-17T06:03:03;95832.63;;;4.99;79.06
51083;BME280;37131;42.694;23.350;2024-03-17T06:05:39;95831.97;;;5.19;76.86
51083;BME280;37131;42.694;23.350;2024-03-17T06:08:08;95833.66;;;4.96;77.62
51083;BME280;37131;42.694;23.350;2024-03-17T06:10:35;95834.41;;;5.10;75.99
51083;BME280;37131;42.694;23.350;2024-03-17T06:13:00;95842.78;;;5.12;77.59
51083;BME280;37131;42.694;23.350;2024-03-17T06:15:26;95843.00;;;5.31;78.51
51083;BME280;37131;42.694;23.350;2024-03-17T06:17:55;95843.50;;;5.47;77.34
51083;BME280;37131;42.694;23.350;2024-03-17T06:20:22;95848.75;;;5.57;75.32
51083;BME280;37131;42.694;23.350;2024-03-17T06:22:49;95853.88;;;5.46;73.70
51083;BME280;37131;42.694;23.350;2024-03-17T06:25:14;95845.84;;;5.50;76.11
51083;BME280;37131;42.694;23.350;2024-03-17T06:27:40;95853.06;;;5.56;75.87
51083;BME280;37131;42.694;23.350;2024-03-17T06:30:06;95853.63;;;5.38;74.93
51083;BME280;37131;42.694;23.350;2024-03-17T06:32:32;95855.72;;;5.55;74.65
51083;BME280;37131;42.694;23.350;2024-03-17T06:34:58;95863.16;;;5.80;72.85
51083;BME280;37131;42.694;23.350;2024-03-17T06:37:24;95858.75;;;5.82;73.41
51083;BME280;37131;42.694;23.350;2024-03-17T06:39:50;95864.34;;;5.87;73.79
51083;BME280;37131;42.694;23.350;2024-03-17T06:42:15;95869.56;;;6.19;72.42
51083;BME280;37131;42.694;23.350;2024-03-17T06:44:41;95872.78;;;6.32;72.28
51083;BME280;37131;42.694;23.350;2024-03-17T06:47:06;95872.38;;;6.16;72.37
51083;BME280;37131;42.694;23.350;2024-03-17T06:49:31;95875.78;;;6.49;72.40
51083;BME280;37131;42.694;23.350;2024-03-17T06:51:58;95866.50;;;6.69;71.66
51083;BME280;37131;42.694;23.350;2024-03-17T06:54:23;95871.34;;;6.83;71.86
51083;BME280;37131;42.694;23.350;2024-03-17T06:56:49;95868.03;;;6.92;70.62
51083;BME280;37131;42.694;23.350;2024-03-17T06:59:14;95864.88;;;6.68;71.64
51083;BME280;37131;42.694;23.350;2024-03-17T07:01:39;95861.63;;;6.86;70.53
51083;BME280;37131;42.694;23.350;2024-03-17T07:04:05;95862.47;;;7.08;69.56
51083;BME280;37131;42.694;23.350;2024-03-17T07:06:30;95864.34;;;7.06;68.16
51083;BME280;37131;42.694;23.350;2024-03-17T07:08:56;95868.31;;;7.10;69.86
51083;BME280;37131;42.694;23.350;2024-03-17T07:11:22;95871.63;;;7.21;70.17
51083;BME280;37131;42.694;23.350;2024-03-17T07:13:49;95868.75;;;7.15;68.77
51083;BME280;37131;42.694;23.350;2024-03-17T07:16:16;95862.19;;;7.52;68.34
51083;BME280;37131;42.694;23.350;2024-03-17T07:18:43;95858.13;;;7.50;69.12
51083;BME280;37131;42.694;23.350;2024-03-17T07:21:09;95860.38;;;7.43;68.95
51083;BME280;37131;42.694;23.350;2024-03-17T07:23:35;95853.53;;;7.53;68.14
51083;BME280;37131;42.694;23.350;2024-03-17T07:26:02;95857.44;;;7.78;68.28
51083;BME280;37131;42.694;23.350;2024-03-17T07:28:30;95861.97;;;8.05;68.48
51083;BME280;37131;42.694;23.350;2024-03-17T07:30:58;95862.16;;;8.23;65.93
51083;BME280;37131;42.694;23.350;2024-03-17T07:33:26;95863.03;;;8.43;65.50
51083;BME280;37131;42.694;23.350;2024-03-17T07:35:56;95861.91;;;8.26;65.49
51083;BME280;37131;42.694;23.350;2024-03-17T07:38:29;95868.19;;;8.03;64.95
51083;BME280;37131;42.694;23.350;2024-03-17T07:40:57;95864.22;;;8.29;65.82
51083;BME280;37131;42.694;23.350;2024-03-17T07:43:24;95869.00;;;8.53;63.75
51083;BME280;37131;42.694;23.350;2024-03-17T07:48:32;95877.78;;;8.41;64.05
51083;BME280;37131;42.694;23.350;2024-03-17T07:50:59;95875.94;;;8.72;63.92
51083;BME280;37131;42.694;23.350;2024-03-17T07:53:26;95867.25;;;8.92;62.92
51083;BME280;37131;42.694;23.350;2024-03-17T07:58:29;95866.88;;;8.77;63.71
51083;BME280;37131;42.694;23.350;2024-03-17T08:00:58;95872.59;;;8.21;64.96
51083;BME280;37131;42.694;23.350;2024-03-17T08:03:25;95868.31;;;8.41;63.71
51083;BME280;37131;42.694;23.350;2024-03-17T08:05:51;95867.91;;;8.46;64.51
51083;BME280;37131;42.694;23.350;2024-03-17T08:08:17;95864.28;;;8.68;63.56
51083;BME280;37131;42.694;23.350;2024-03-17T08:10:43;95858.44;;;8.85;62.46
51083;BME280;37131;42.694;23.350;2024-03-17T08:13:08;95866.84;;;8.96;62.70
51083;BME280;37131;42.694;23.350;2024-03-17T08:15:34;95862.38;;;9.08;61.80
51083;BME280;37131;42.694;23.350;2024-03-17T08:18:00;95854.75;;;9.26;60.76
51083;BME280;37131;42.694;23.350;2024-03-17T08:20:25;95855.03;;;9.04;61.58
51083;BME280;37131;42.694;23.350;2024-03-17T08:22:50;95854.53;;;8.71;63.25
51083;BME280;37131;42.694;23.350;2024-03-17T08:25:16;95855.59;;;9.07;62.07
51083;BME280;37131;42.694;23.350;2024-03-17T08:27:41;95852.59;;;9.21;61.75
51083;BME280;37131;42.694;23.350;2024-03-17T08:30:08;95855.03;;;9.13;62.09
51083;BME280;37131;42.694;23.350;2024-03-17T08:32:35;95859.53;;;9.02;62.02
51083;BME280;37131;42.694;23.350;2024-03-17T08:35:00;95853.44;;;8.93;62.09
51083;BME280;37131;42.694;23.350;2024-03-17T08:37:25;95844.59;;;9.05;61.88
51083;BME280;37131;42.694;23.350;2024-03-17T08:39:52;95844.53;;;9.44;60.81
51083;BME280;37131;42.694;23.350;2024-03-17T08:42:17;95840.25;;;9.62;60.91
51083;BME280;37131;42.694;23.350;2024-03-17T08:44:46;95839.13;;;9.74;58.83
51083;BME280;37131;42.694;23.350;2024-03-17T08:47:11;95836.19;;;9.59;59.58
51083;BME280;37131;42.694;23.350;2024-03-17T08:49:36;95834.25;;;9.71;59.76
51083;BME280;37131;42.694;23.350;2024-03-17T08:52:02;95832.09;;;9.67;58.79
51083;BME280;37131;42.694;23.350;2024-03-17T08:54:27;95821.63;;;9.78;58.03
51083;BME280;37131;42.694;23.350;2024-03-17T08:56:53;95823.84;;;9.90;57.91
51083;BME280;37131;42.694;23.350;2024-03-17T08:59:18;95823.91;;;10.08;56.75
51083;BME280;37131;42.694;23.350;2024-03-17T09:01:43;95818.91;;;9.97;57.56
51083;BME280;37131;42.694;23.350;2024-03-17T09:04:09;95822.38;;;10.15;57.70
51083;BME280;37131;42.694;23.350;2024-03-17T09:06:36;95817.34;;;10.14;57.03
51083;BME280;37131;42.694;23.350;2024-03-17T09:09:02;95822.66;;;10.40;56.39
51083;BME280;37131;42.694;23.350;2024-03-17T09:11:28;95818.06;;;10.06;57.83
51083;BME280;37131;42.694;23.350;2024-03-17T09:13:54;95808.28;;;10.37;57.33
51083;BME280;37131;42.694;23.350;2024-03-17T09:16:20;95808.47;;;10.61;57.00
51083;BME280;37131;42.694;23.350;2024-03-17T09:18:48;95798.44;;;10.76;56.02
51083;BME280;37131;42.694;23.350;2024-03-17T09:21:14;95794.97;;;11.11;55.83
51083;BME280;37131;42.694;23.350;2024-03-17T09:23:41;95793.63;;;11.25;53.98
51083;BME280;37131;42.694;23.350;2024-03-17T09:26:08;95787.44;;;11.52;52.91
51083;BME280;37131;42.694;23.350;2024-03-17T09:28:35;95783.63;;;11.64;53.17
51083;BME280;37131;42.694;23.350;2024-03-17T09:31:01;95787.56;;;11.76;51.54
51083;BME280;37131;42.694;23.350;2024-03-17T09:33:27;95789.28;;;11.93;52.56
51083;BME280;37131;42.694;23.350;2024-03-17T09:36:00;95780.78;;;12.17;52.40
51083;BME280;37131;42.694;23.350;2024-03-17T09:38:27;95772.84;;;12.19;52.28
51083;BME280;37131;42.694;23.350;2024-03-17T09:40:53;95775.50;;;12.68;51.39
51083;BME280;37131;42.694;23.350;2024-03-17T09:43:20;95769.97;;;13.03;49.00
51083;BME280;37131;42.694;23.350;2024-03-17T09:45:47;95773.34;;;13.12;49.67
51083;BME280;37131;42.694;23.350;2024-03-17T09:48:16;95764.16;;;13.17;49.14
51083;BME280;37131;42.694;23.350;2024-03-17T09:51:05;95769.34;;;13.17;48.29
51083;BME280;37131;42.694;23.350;2024-03-17T09:53:32;95762.66;;;13.39;48.90
51083;BME280;37131;42.694;23.350;2024-03-17T09:58:24;95771.53;;;13.92;46.09
51083;BME280;37131;42.694;23.350;2024-03-17T10:00:50;95766.19;;;13.94;44.76
51083;BME280;37131;42.694;23.350;2024-03-17T10:06:29;95766.47;;;14.30;42.66
51083;BME280;37131;42.694;23.350;2024-03-17T10:08:56;95772.38;;;13.84;43.40
51083;BME280;37131;42.694;23.350;2024-03-17T10:11:24;95762.97;;;14.14;42.21
51083;BME280;37131;42.694;23.350;2024-03-17T10:16:30;95772.69;;;13.89;43.22
51083;BME280;37131;42.694;23.350;2024-03-17T10:21:36;95773.06;;;14.09;42.97
51083;BME280;37131;42.694;23.350;2024-03-17T10:26:31;95764.47;;;14.09;43.74
51083;BME280;37131;42.694;23.350;2024-03-17T10:28:56;95766.34;;;13.92;41.84
51083;BME280;37131;42.694;23.350;2024-03-17T10:31:22;95769.13;;;13.90;41.09
51083;BME280;37131;42.694;23.350;2024-03-17T10:34:01;95771.84;;;13.97;40.75
51083;BME280;37131;42.694;23.350;2024-03-17T10:36:26;95764.69;;;13.99;42.13
51083;BME280;37131;42.694;23.350;2024-03-17T10:38:52;95758.50;;;14.31;41.81
51083;BME280;37131;42.694;23.350;2024-03-17T10:41:18;95762.41;;;14.27;39.24
51083;BME280;37131;42.694;23.350;2024-03-17T10:43:45;95762.00;;;14.46;37.08
51083;BME280;37131;42.694;23.350;2024-03-17T10:46:13;95759.06;;;14.49;37.13
51083;BME280;37131;42.694;23.350;2024-03-17T10:48:41;95756.44;;;14.72;37.35
51083;BME280;37131;42.694;23.350;2024-03-17T10:51:10;95761.47;;;14.74;34.95
51083;BME280;37131;42.694;23.350;2024-03-17T10:53:42;95767.44;;;14.29;34.90
51083;BME280;37131;42.694;23.350;2024-03-17T10:56:15;95758.41;;;14.16;36.33
51083;BME280;37131;42.694;23.350;2024-03-17T10:58:44;95755.56;;;14.57;36.19
51083;BME280;37131;42.694;23.350;2024-03-17T11:01:16;95754.75;;;14.56;37.23
51083;BME280;37131;42.694;23.350;2024-03-17T11:03:45;95750.84;;;14.61;37.71
51083;BME280;37131;42.694;23.350;2024-03-17T11:06:12;95747.06;;;14.86;36.87
51083;BME280;37131;42.694;23.350;2024-03-17T11:08:38;95745.38;;;14.93;37.42
51083;BME280;37131;42.694;23.350;2024-03-17T11:11:04;95739.38;;;14.55;38.16
51083;BME280;37131;42.694;23.350;2024-03-17T11:13:32;95727.94;;;14.79;38.97
51083;BME280;37131;42.694;23.350;2024-03-17T11:15:58;95734.09;;;15.01;38.37
51083;BME280;37131;42.694;23.350;2024-03-17T11:21:07;95733.75;;;15.04;39.53
51083;BME280;37131;42.694;23.350;2024-03-17T11:23:34;95729.81;;;14.70;39.72
51083;BME280;37131;42.694;23.350;2024-03-17T11:26:00;95727.25;;;14.85;40.43
51083;BME280;37131;42.694;23.350;2024-03-17T11:33:57;95718.28;;;14.87;39.53
51083;BME280;37131;42.694;23.350;2024-03-17T11:39:09;95716.78;;;14.93;37.89
51083;BME280;37131;42.694;23.350;2024-03-17T11:41:45;95707.28;;;15.15;36.47
51083;BME280;37131;42.694;23.350;2024-03-17T11:44:25;95706.03;;;15.55;36.10
51083;BME280;37131;42.694;23.350;2024-03-17T11:47:03;95702.31;;;15.94;35.89
51083;BME280;37131;42.694;23.350;2024-03-17T11:49:37;95703.84;;;15.88;36.08
51083;BME280;37131;42.694;23.350;2024-03-17T11:52:08;95694.53;;;15.79;34.80
51083;BME280;37131;42.694;23.350;2024-03-17T11:54:35;95704.22;;;15.85;35.90
51083;BME280;37131;42.694;23.350;2024-03-17T11:57:03;95701.47;;;15.28;36.37
51083;BME280;37131;42.694;23.350;2024-03-17T11:59:29;95701.81;;;15.10;36.13
51083;BME280;37131;42.694;23.350;2024-03-17T12:01:54;95704.59;;;15.23;35.89
51083;BME280;37131;42.694;23.350;2024-03-17T12:04:21;95698.34;;;15.98;34.77
51083;BME280;37131;42.694;23.350;2024-03-17T12:06:49;95695.81;;;15.39;36.30
51083;BME280;37131;42.694;23.350;2024-03-17T12:11:46;95697.50;;;15.46;35.71
51083;BME280;37131;42.694;23.350;2024-03-17T12:14:18;95693.72;;;15.64;35.98
51083;BME280;37131;42.694;23.350;2024-03-17T12:16:54;95690.34;;;16.84;33.26
51083;BME280;37131;42.694;23.350;2024-03-17T12:19:21;95690.28;;;16.78;33.27
51083;BME280;37131;42.694;23.350;2024-03-17T12:21:49;95686.88;;;16.77;33.70
51083;BME280;37131;42.694;23.350;2024-03-17T12:24:21;95693.25;;;17.31;32.21
51083;BME280;37131;42.694;23.350;2024-03-17T12:26:50;95702.66;;;18.07;31.64
51083;BME280;37131;42.694;23.350;2024-03-17T12:29:23;95694.31;;;19.17;30.77
51083;BME280;37131;42.694;23.350;2024-03-17T12:31:59;95697.94;;;19.03;30.85
51083;BME280;37131;42.694;23.350;2024-03-17T12:34:27;95699.94;;;18.81;30.89
51083;BME280;37131;42.694;23.350;2024-03-17T12:36:55;95697.44;;;18.20;31.58
51083;BME280;37131;42.694;23.350;2024-03-17T12:39:31;95693.41;;;18.05;32.00
51083;BME280;37131;42.694;23.350;2024-03-17T12:42:09;95694.16;;;17.51;33.47
51083;BME280;37131;42.694;23.350;2024-03-17T12:44:39;95687.19;;;17.58;33.62
51083;BME280;37131;42.694;23.350;2024-03-17T12:47:14;95684.72;;;17.91;34.17
51083;BME280;37131;42.694;23.350;2024-03-17T12:49:45;95693.47;;;17.36;35.06
51083;BME280;37131;42.694;23.350;2024-03-17T12:55:08;95689.50;;;17.40;36.82
51083;BME280;37131;42.694;23.350;2024-03-17T12:58:05;95693.16;;;16.40;39.28
51083;BME280;37131;42.694;23.350;2024-03-17T13:00:57;95685.19;;;16.91;37.49
51083;BME280;37131;42.694;23.350;2024-03-17T13:03:25;95679.88;;;16.57;38.15
51083;BME280;37131;42.694;23.350;2024-03-17T13:05:51;95672.31;;;16.40;39.19
51083;BME280;37131;42.694;23.350;2024-03-17T13:08:16;95688.00;;;15.68;40.28
51083;BME280;37131;42.694;23.350;2024-03-17T13:10:42;95683.47;;;15.92;40.27
51083;BME280;37131;42.694;23.350;2024-03-17T13:13:08;95678.91;;;15.64;40.08
51083;BME280;37131;42.694;23.350;2024-03-17T13:15:35;95681.38;;;15.36;41.10
51083;BME280;37131;42.694;23.350;2024-03-17T13:18:04;95681.38;;;15.07;41.99
51083;BME280;37131;42.694;23.350;2024-03-17T13:20:30;95683.44;;;14.97;42.65
51083;BME280;37131;42.694;23.350;2024-03-17T13:22:56;95677.25;;;14.37;43.51
51083;BME280;37131;42.694;23.350;2024-03-17T13:25:29;95690.66;;;14.26;44.10
51083;BME280;37131;42.694;23.350;2024-03-17T13:28:00;95684.03;;;14.01;44.70
51083;BME280;37131;42.694;23.350;2024-03-17T13:30:26;95681.75;;;14.20;44.88
51083;BME280;37131;42.694;23.350;2024-03-17T13:32:54;95676.97;;;14.32;44.07
51083;BME280;37131;42.694;23.350;2024-03-17T13:35:26;95680.66;;;14.15;44.27